KGDV/GDV METAR and TAF weather

Enter ICAO airport designator
Station Type Date Time Source
KGDV METAR 2021/02/27 21:56 UTC NOAA

KGDV 272156Z AUTO 01006KT 10SM OVC019 M04/M08 A2995 RMK AO2 SLP176 T10441083 FZRANO


Station Type Date Time Source
KGDV Decoded METAR 2021/02/27 21:56 UTC NOAA

Glendive, Dawson Community Airport, MT, United States (KGDV) 47-08N 104-48W
Feb 27, 2021 - 04:56 PM EST / 2021.02.27 2156 UTC
Wind: from the N (010 degrees) at 7 MPH (6 KT):0
Visibility: 10 mile(s):0
Sky conditions: overcast
Temperature: 24.1 F (-4.4 C)
Windchill: 15 F (-9 C):1
Dew Point: 17.1 F (-8.3 C)
Relative Humidity: 74%
Pressure (altimeter): 29.95 in. Hg (1014 hPa)
ob: KGDV 272156Z AUTO 01006KT 10SM OVC019 M04/M08 A2995 RMK AO2 SLP176 T10441083 FZRANO
cycle: 22

Station Type Date Time Source
KGDV TAF 2021/02/27 18:22 UTC NOAA

TAF KGDV 271720Z 2718/2818 02009KT P6SM OVC005
FM271900 02009KT P6SM SCT011
FM281200 VRB06KT P6SM FEW200
FM281500 23012G20KT P6SM SCT180

Example: see airport list